createdAt,value
2022-09-23T00:01:30.946Z,13.50
2022-09-23T00:04:00.073Z,13.40
2022-09-23T00:06:31.350Z,13.42
2022-09-23T00:08:59.649Z,13.40
2022-09-23T00:11:29.235Z,13.36
2022-09-23T00:14:00.909Z,13.38
2022-09-23T00:16:35.356Z,13.34
2022-09-23T00:19:04.631Z,13.24
2022-09-23T00:21:32.837Z,13.21
2022-09-23T00:24:02.195Z,13.21
2022-09-23T00:26:30.668Z,13.20
2022-09-23T00:28:58.993Z,13.15
2022-09-23T00:31:27.829Z,13.12
2022-09-23T00:33:58.148Z,13.16
2022-09-23T00:36:28.856Z,13.15
2022-09-23T00:38:57.296Z,13.12
2022-09-23T00:41:26.709Z,13.12
2022-09-23T00:43:59.901Z,13.09
2022-09-23T00:46:34.799Z,13.10
2022-09-23T00:49:29.769Z,13.08
2022-09-23T00:52:12.314Z,13.03
2022-09-23T00:54:41.605Z,13.02
2022-09-23T00:57:11.754Z,13.03
2022-09-23T00:59:40.134Z,13.03
2022-09-23T01:02:10.078Z,13.00
2022-09-23T01:04:38.853Z,12.97
2022-09-23T01:07:07.213Z,12.99
2022-09-23T01:09:36.295Z,13.01
2022-09-23T01:12:22.129Z,13.01
2022-09-23T01:15:17.851Z,13.01
2022-09-23T01:18:22.198Z,12.96
2022-09-23T01:21:13.554Z,12.97
2022-09-23T01:23:53.514Z,12.99
2022-09-23T01:26:25.079Z,13.00
2022-09-23T01:29:21.475Z,13.09
2022-09-23T01:32:13.599Z,13.10
2022-09-23T01:35:14.073Z,13.12
2022-09-23T01:37:56.515Z,13.15
2022-09-23T01:40:42.984Z,13.18
2022-09-23T01:43:22.794Z,13.18
2022-09-23T01:45:57.154Z,13.16
2022-09-23T01:48:36.106Z,13.11
2022-09-23T01:51:15.034Z,12.98
2022-09-23T01:54:09.397Z,12.89
2022-09-23T01:56:44.273Z,12.85
2022-09-23T01:59:18.713Z,12.84
2022-09-23T02:01:58.582Z,12.81
2022-09-23T02:04:46.397Z,12.79
2022-09-23T02:07:20.735Z,12.75
2022-09-23T02:10:01.191Z,12.75
2022-09-23T02:12:34.750Z,12.74
2022-09-23T02:15:16.719Z,12.64
2022-09-23T02:18:16.606Z,12.49
2022-09-23T02:20:45.729Z,12.29
2022-09-23T02:23:20.730Z,12.10
2022-09-23T02:26:35.851Z,12.08
2022-09-23T02:29:27.769Z,12.12
2022-09-23T02:32:16.412Z,12.15
2022-09-23T02:34:47.809Z,12.20
2022-09-23T02:37:19.375Z,12.20
2022-09-23T02:40:23.673Z,12.26
2022-09-23T02:42:58.093Z,12.22
2022-09-23T02:45:26.409Z,12.28
2022-09-23T02:48:02.769Z,12.28
2022-09-23T02:50:32.492Z,12.29
2022-09-23T02:53:01.409Z,12.27
2022-09-23T02:55:34.210Z,12.27
2022-09-23T02:58:06.210Z,12.28
2022-09-23T03:01:06.480Z,12.29
2022-09-23T03:04:08.089Z,12.27
2022-09-23T03:06:52.037Z,12.18
2022-09-23T03:09:33.090Z,12.15
2022-09-23T03:12:35.009Z,12.08
2022-09-23T03:15:19.488Z,12.04
2022-09-23T03:18:04.384Z,12.01
2022-09-23T03:20:39.853Z,11.97
2022-09-23T03:23:11.649Z,11.95
2022-09-23T03:25:45.119Z,11.95
2022-09-23T03:28:16.492Z,11.95
2022-09-23T03:30:45.208Z,11.88
2022-09-23T03:33:17.608Z,11.80
2022-09-23T03:36:11.929Z,11.70
2022-09-23T03:38:45.849Z,11.68
2022-09-23T03:41:18.370Z,11.71
2022-09-23T03:43:46.888Z,11.67
2022-09-23T03:46:17.543Z,11.69
2022-09-23T03:48:46.604Z,11.65
2022-09-23T03:51:23.172Z,11.62
2022-09-23T03:53:51.633Z,11.58
2022-09-23T03:56:19.789Z,11.55
2022-09-23T03:58:49.589Z,11.53
2022-09-23T04:01:18.105Z,11.51
2022-09-23T04:03:46.189Z,11.48
2022-09-23T04:06:14.393Z,11.47
2022-09-23T04:08:42.874Z,11.44
2022-09-23T04:11:11.553Z,11.43
2022-09-23T04:13:39.834Z,11.41
2022-09-23T04:16:08.429Z,11.40
2022-09-23T04:18:37.177Z,11.38
2022-09-23T04:21:05.667Z,11.37
2022-09-23T04:23:33.904Z,11.41
2022-09-23T04:26:02.585Z,11.42
2022-09-23T04:28:30.865Z,11.41
2022-09-23T04:30:59.706Z,11.41
